Time,TemperatureF,DewpointF,PressureIn,WindDirection,WindDirectionDegrees,WindSpeedMPH,WindSpeedGustMPH,Humidity,HourlyPrecipIn,Conditions,Clouds,dailyrainin,SoftwareType,DateUTC
2013-01-31 00:02:00,25.5,21.1,30.10,South,180,0.0,-999.0,83,-99.99,,,0.00,Acu-Link.com,2013-01-31 06:02:00,
2013-01-31 00:17:00,25.5,21.7,30.10,South,180,0.0,-999.0,85,-99.99,,,0.00,Acu-Link.com,2013-01-31 06:17:00,
2013-01-31 00:32:00,25.0,20.6,30.10,South,180,0.0,-999.0,83,-99.99,,,0.00,Acu-Link.com,2013-01-31 06:32:00,
2013-01-31 00:47:00,24.8,21.2,30.09,South,180,0.0,-999.0,86,-99.99,,,0.00,Acu-Link.com,2013-01-31 06:47:00,
2013-01-31 01:02:00,24.6,21.0,30.10,South,180,0.0,-999.0,86,-99.99,,,0.00,Acu-Link.com,2013-01-31 07:02:00,
2013-01-31 01:18:00,24.8,21.5,30.10,South,180,0.0,-999.0,87,-99.99,,,0.00,Acu-Link.com,2013-01-31 07:18:00,
2013-01-31 01:33:00,24.6,21.6,30.09,South,180,0.0,-999.0,88,-99.99,,,0.00,Acu-Link.com,2013-01-31 07:33:00,
2013-01-31 01:48:00,24.3,21.8,30.10,South,180,0.0,-999.0,90,-99.99,,,0.00,Acu-Link.com,2013-01-31 07:48:00,
2013-01-31 02:03:00,23.9,21.9,30.10,South,180,0.0,-999.0,92,-99.99,,,0.00,Acu-Link.com,2013-01-31 08:03:00,
2013-01-31 02:18:00,23.4,21.1,30.10,South,180,0.0,-999.0,91,-99.99,,,0.00,Acu-Link.com,2013-01-31 08:18:00,
2013-01-31 02:34:00,22.8,20.3,30.10,South,180,0.0,-999.0,90,-99.99,,,0.00,Acu-Link.com,2013-01-31 08:34:00,
2013-01-31 02:49:00,22.8,21.1,30.11,South,180,0.0,-999.0,93,-99.99,,,0.00,Acu-Link.com,2013-01-31 08:49:00,
2013-01-31 03:15:00,22.8,21.1,30.10,South,180,0.0,-999.0,93,-99.99,,,0.00,Acu-Link.com,2013-01-31 09:15:00,
2013-01-31 03:31:00,23.4,21.9,30.09,South,180,0.0,-999.0,94,-99.99,,,0.00,Acu-Link.com,2013-01-31 09:31:00,
2013-01-31 03:46:00,23.7,22.3,30.08,South,180,0.0,-999.0,94,-99.99,,,0.00,Acu-Link.com,2013-01-31 09:46:00,
2013-01-31 04:01:00,23.2,21.5,30.09,South,180,0.0,-999.0,93,-99.99,,,0.00,Acu-Link.com,2013-01-31 10:01:00,
2013-01-31 04:16:00,22.6,21.2,30.07,NNE,22,0.0,-999.0,94,-99.99,,,0.00,Acu-Link.com,2013-01-31 10:16:00,
2013-01-31 04:31:00,22.6,21.9,30.06,NE,45,0.0,-999.0,97,-99.99,,,0.00,Acu-Link.com,2013-01-31 10:31:00,
2013-01-31 04:47:00,22.6,21.9,30.06,ENE,67,0.0,-999.0,97,-99.99,,,0.00,Acu-Link.com,2013-01-31 10:47:00,
2013-01-31 05:02:00,22.1,21.1,30.06,ENE,67,0.0,-999.0,96,-99.99,,,0.00,Acu-Link.com,2013-01-31 11:02:00,
2013-01-31 05:17:00,22.1,21.4,30.06,South,180,0.0,-999.0,97,-99.99,,,0.00,Acu-Link.com,2013-01-31 11:17:00,
2013-01-31 05:32:00,22.8,21.9,30.07,South,180,2.2,-999.0,96,-99.99,,,0.00,Acu-Link.com,2013-01-31 11:32:00,
2013-01-31 05:47:00,22.3,21.3,30.08,South,180,0.0,-999.0,96,-99.99,,,0.00,Acu-Link.com,2013-01-31 11:47:00,
2013-01-31 06:03:00,22.3,21.8,30.08,South,180,0.0,-999.0,98,-99.99,,,0.00,Acu-Link.com,2013-01-31 12:03:00,
2013-01-31 06:18:00,21.2,20.5,30.08,NNW,337,0.0,-999.0,97,-99.99,,,0.00,Acu-Link.com,2013-01-31 12:18:00,
2013-01-31 06:33:00,20.8,20.4,30.09,NE,45,0.0,-999.0,98,-99.99,,,0.00,Acu-Link.com,2013-01-31 12:33:00,
2013-01-31 06:48:00,20.5,20.0,30.10,NNW,337,0.0,-999.0,98,-99.99,,,0.00,Acu-Link.com,2013-01-31 12:48:00,
2013-01-31 07:03:00,20.3,19.8,30.11,NNW,337,0.0,-999.0,98,-99.99,,,0.00,Acu-Link.com,2013-01-31 13:03:00,
2013-01-31 07:19:00,20.3,19.8,30.12,NNW,337,0.0,-999.0,98,-99.99,,,0.00,Acu-Link.com,2013-01-31 13:19:00,
2013-01-31 07:34:00,19.9,19.5,30.12,NNE,22,0.0,-999.0,98,-99.99,,,0.00,Acu-Link.com,2013-01-31 13:34:00,
2013-01-31 07:49:00,19.8,19.3,30.12,ESE,112,0.0,-999.0,98,-99.99,,,0.00,Acu-Link.com,2013-01-31 13:49:00,
2013-01-31 08:04:00,20.8,20.4,30.12,NW,315,0.0,-999.0,98,-99.99,,,0.00,Acu-Link.com,2013-01-31 14:04:00,
2013-01-31 08:19:00,23.5,23.1,30.13,SSE,157,0.0,-999.0,98,-99.99,,,0.00,Acu-Link.com,2013-01-31 14:19:00,
2013-01-31 08:35:00,25.0,24.5,30.13,SSW,202,0.0,-999.0,98,-99.99,,,0.00,Acu-Link.com,2013-01-31 14:35:00,
2013-01-31 08:50:00,29.3,28.3,30.14,South,180,2.7,-999.0,96,-99.99,,,0.00,Acu-Link.com,2013-01-31 14:50:00,
2013-01-31 09:05:00,34.5,26.1,30.14,South,180,3.1,-999.0,71,-99.99,,,0.00,Acu-Link.com,2013-01-31 15:05:00,
2013-01-31 09:20:00,36.5,26.2,30.15,South,180,2.7,-999.0,66,-99.99,,,0.00,Acu-Link.com,2013-01-31 15:20:00,
2013-01-31 09:36:00,40.8,26.4,30.15,SSW,202,4.7,-999.0,56,-99.99,,,0.00,Acu-Link.com,2013-01-31 15:36:00,
2013-01-31 09:51:00,44.4,27.9,30.16,South,180,3.8,-999.0,52,-99.99,,,0.00,Acu-Link.com,2013-01-31 15:51:00,
2013-01-31 10:06:00,46.4,27.8,30.16,SE,135,2.7,-999.0,48,-99.99,,,0.00,Acu-Link.com,2013-01-31 16:06:00,
2013-01-31 10:21:00,50.2,27.4,30.16,SW,225,7.4,-999.0,41,-99.99,,,0.00,Acu-Link.com,2013-01-31 16:21:00,
2013-01-31 10:36:00,51.6,26.9,30.16,South,180,6.7,-999.0,38,-99.99,,,0.00,Acu-Link.com,2013-01-31 16:36:00,
2013-01-31 10:52:00,54.0,27.6,30.16,SW,225,4.3,-999.0,36,-99.99,,,0.00,Acu-Link.com,2013-01-31 16:52:00,
2013-01-31 11:07:00,57.2,28.4,30.15,South,180,2.7,-999.0,33,-99.99,,,0.00,Acu-Link.com,2013-01-31 17:07:00,
2013-01-31 11:22:00,58.6,26.5,30.15,SW,225,6.3,-999.0,29,-99.99,,,0.00,Acu-Link.com,2013-01-31 17:22:00,
2013-01-31 11:37:00,61.2,25.1,30.15,SW,225,10.3,-999.0,25,-99.99,,,0.00,Acu-Link.com,2013-01-31 17:37:00,
2013-01-31 11:52:00,62.2,26.0,30.13,SSW,202,11.4,-999.0,25,-99.99,,,0.00,Acu-Link.com,2013-01-31 17:52:00,
2013-01-31 12:08:00,62.2,25.0,30.13,SW,225,9.8,-999.0,24,-99.99,,,0.00,Acu-Link.com,2013-01-31 18:08:00,
2013-01-31 12:23:00,64.4,25.8,30.12,WSW,247,9.4,-999.0,23,-99.99,,,0.00,Acu-Link.com,2013-01-31 18:23:00,
2013-01-31 12:38:00,64.6,24.9,30.10,West,270,10.3,-999.0,22,-99.99,,,0.00,Acu-Link.com,2013-01-31 18:38:00,
2013-01-31 12:53:00,65.1,25.3,30.10,SW,225,8.9,-999.0,22,-99.99,,,0.00,Acu-Link.com,2013-01-31 18:53:00,
2013-01-31 13:08:00,66.6,25.4,30.10,WSW,247,7.4,-999.0,21,-99.99,,,0.00,Acu-Link.com,2013-01-31 19:08:00,
2013-01-31 13:24:00,67.8,26.5,30.08,SSW,202,7.8,-999.0,21,-99.99,,,0.00,Acu-Link.com,2013-01-31 19:24:00,
2013-01-31 13:39:00,67.1,22.2,30.08,SW,225,5.8,-999.0,18,-99.99,,,0.00,Acu-Link.com,2013-01-31 19:39:00,
2013-01-31 13:54:00,68.2,21.7,30.08,WSW,247,7.8,-999.0,17,-99.99,,,0.00,Acu-Link.com,2013-01-31 19:54:00,
2013-01-31 14:09:00,67.8,24.1,30.07,West,270,6.3,-999.0,19,-99.99,,,0.00,Acu-Link.com,2013-01-31 20:09:00,
2013-01-31 14:24:00,67.8,18.5,30.06,West,270,8.9,-999.0,15,-99.99,,,0.00,Acu-Link.com,2013-01-31 20:24:00,
2013-01-31 14:40:00,67.8,21.4,30.05,WSW,247,8.3,-999.0,17,-99.99,,,0.00,Acu-Link.com,2013-01-31 20:40:00,
2013-01-31 14:55:00,68.2,24.4,30.04,WSW,247,8.9,-999.0,19,-99.99,,,0.00,Acu-Link.com,2013-01-31 20:55:00,
2013-01-31 15:10:00,68.2,-5.3,30.04,West,270,8.9,-999.0,5,-99.99,,,0.00,Acu-Link.com,2013-01-31 21:10:00,
2013-01-31 15:25:00,68.4,-9.7,30.05,SSW,202,13.0,-999.0,4,-99.99,,,0.00,Acu-Link.com,2013-01-31 21:25:00,
2013-01-31 15:40:00,69.1,14.4,30.04,SSW,202,7.8,-999.0,12,-99.99,,,0.00,Acu-Link.com,2013-01-31 21:40:00,
2013-01-31 15:56:00,68.7,2.2,30.05,WSW,247,13.0,-999.0,7,-99.99,,,0.00,Acu-Link.com,2013-01-31 21:56:00,
2013-01-31 16:11:00,68.4,24.5,30.06,SW,225,6.7,-999.0,19,-99.99,,,0.00,Acu-Link.com,2013-01-31 22:11:00,
2013-01-31 16:26:00,67.3,24.8,30.06,SW,225,11.0,-999.0,20,-99.99,,,0.00,Acu-Link.com,2013-01-31 22:26:00,
2013-01-31 16:41:00,66.6,24.2,30.06,SW,225,5.1,-999.0,20,-99.99,,,0.00,Acu-Link.com,2013-01-31 22:41:00,
2013-01-31 16:56:00,67.8,25.3,30.06,SW,225,10.3,-999.0,20,-99.99,,,0.00,Acu-Link.com,2013-01-31 22:56:00,
2013-01-31 17:12:00,67.5,25.0,30.06,West,270,6.7,-999.0,20,-99.99,,,0.00,Acu-Link.com,2013-01-31 23:12:00,
2013-01-31 17:27:00,66.6,25.4,30.06,SSW,202,7.4,-999.0,21,-99.99,,,0.00,Acu-Link.com,2013-01-31 23:27:00,
2013-01-31 17:42:00,64.4,26.8,30.05,WSW,247,5.1,-999.0,24,-99.99,,,0.00,Acu-Link.com,2013-01-31 23:42:00,
2013-01-31 17:57:00,62.6,26.3,30.05,SSW,202,3.1,-999.0,25,-99.99,,,0.00,Acu-Link.com,2013-01-31 23:57:00,
2013-01-31 18:12:00,60.8,26.6,30.06,SSW,202,2.2,-999.0,27,-99.99,,,0.00,Acu-Link.com,2013-02-01 00:12:00,
2013-01-31 18:28:00,59.4,26.3,30.07,SSW,202,1.6,-999.0,28,-99.99,,,0.00,Acu-Link.com,2013-02-01 00:28:00,
2013-01-31 18:43:00,57.4,27.8,30.07,SW,225,0.0,-999.0,32,-99.99,,,0.00,Acu-Link.com,2013-02-01 00:43:00,
2013-01-31 18:58:00,55.4,26.8,30.08,WSW,247,0.0,-999.0,33,-99.99,,,0.00,Acu-Link.com,2013-02-01 00:58:00,
2013-01-31 19:13:00,54.5,26.7,30.10,SSW,202,0.0,-999.0,34,-99.99,,,0.00,Acu-Link.com,2013-02-01 01:13:00,
2013-01-31 19:29:00,52.0,27.2,30.11,SSW,202,0.0,-999.0,38,-99.99,,,0.00,Acu-Link.com,2013-02-01 01:29:00,
2013-01-31 19:44:00,49.8,27.7,30.11,South,180,0.0,-999.0,42,-99.99,,,0.00,Acu-Link.com,2013-02-01 01:44:00,
2013-01-31 19:59:00,48.0,27.2,30.12,NNW,337,0.0,-999.0,44,-99.99,,,0.00,Acu-Link.com,2013-02-01 01:59:00,
2013-01-31 20:14:00,47.7,29.9,30.13,NNW,337,0.0,-999.0,50,-99.99,,,0.00,Acu-Link.com,2013-02-01 02:14:00,
2013-01-31 20:29:00,46.6,29.4,30.13,SSE,157,0.0,-999.0,51,-99.99,,,0.00,Acu-Link.com,2013-02-01 02:29:00,
2013-01-31 20:45:00,45.3,28.3,30.13,NE,45,0.0,-999.0,51,-99.99,,,0.00,Acu-Link.com,2013-02-01 02:45:00,
2013-01-31 21:00:00,44.2,27.7,30.14,NE,45,0.0,-999.0,52,-99.99,,,0.00,Acu-Link.com,2013-02-01 03:00:00,
2013-01-31 21:15:00,43.7,28.6,30.14,NNE,22,0.0,-999.0,55,-99.99,,,0.00,Acu-Link.com,2013-02-01 03:15:00,
2013-01-31 21:30:00,42.8,28.6,30.15,South,180,0.0,-999.0,57,-99.99,,,0.00,Acu-Link.com,2013-02-01 03:30:00,
2013-01-31 21:45:00,41.4,28.1,30.15,SE,135,1.6,-999.0,59,-99.99,,,0.00,Acu-Link.com,2013-02-01 03:45:00,
2013-01-31 22:01:00,41.2,28.0,30.16,NNW,337,0.0,-999.0,59,-99.99,,,0.00,Acu-Link.com,2013-02-01 04:01:00,
2013-01-31 22:16:00,40.5,27.3,30.16,SSW,202,0.0,-999.0,59,-99.99,,,0.00,Acu-Link.com,2013-02-01 04:16:00,
2013-01-31 22:31:00,39.4,27.8,30.16,NNW,337,0.0,-999.0,63,-99.99,,,0.00,Acu-Link.com,2013-02-01 04:31:00,
2013-01-31 22:46:00,39.2,28.8,30.17,NW,315,0.0,-999.0,66,-99.99,,,0.00,Acu-Link.com,2013-02-01 04:46:00,
2013-01-31 23:01:00,38.5,28.9,30.17,NNE,22,0.0,-999.0,68,-99.99,,,0.00,Acu-Link.com,2013-02-01 05:01:00,
2013-01-31 23:17:00,37.8,28.5,30.16,North,0,0.0,-999.0,69,-99.99,,,0.00,Acu-Link.com,2013-02-01 05:17:00,
2013-01-31 23:32:00,36.9,27.7,30.17,NE,45,0.0,-999.0,69,-99.99,,,0.00,Acu-Link.com,2013-02-01 05:32:00,
2013-01-31 23:47:00,36.1,27.7,30.17,WNW,292,0.0,-999.0,71,-99.99,,,0.00,Acu-Link.com,2013-02-01 05:47:00,